Terminal Aerodrome Forecast
Issued by NWS Detroit/Pontiac, MI

Home | Current Version | Previous Version | Text Only | Print | Product List | Glossary On
Versions: 1 2 3 4 5 6 7 8 9 10 11 12 13 14 15 16 17 18 19 20 21 22 23 24 25 26 27 28
000
FTUS43 KDTX 301413 AAA
TAFDTW
TAF AMD
KDTW 301413Z 3014/3118 33014G22KT P6SM SCT028
      TEMPO 3014/3016 BKN028
     FM302000 30008KT P6SM FEW040 SCT080
     FM310000 VRB03KT P6SM SCT040 BKN080
     FM310800 20004KT P6SM OVC030=

USA.gov is the U.S. government's official web portal to all federal, state and local government web resources and services.